Time;durP1;ratioP1;P1;durP2;ratioP2;P2;SDS_P1;SDS_P2;PMS_P1;PMS_P2;Temp;Humidity;BMP_temperature;BMP_pressure;BME280_temperature;BME280_humidity;BME280_pressure;Samples;Min_cycle;Max_cycle;Signal;HPM_P1;HPM_P2
2023/10/03 00:00:00;;;;;;;;;;;;;;;;;;2218325;66;3064;-18
2023/10/03 00:02:32;;;;;;;;;;;;;;;;;;2205243;66;2967;-18
2023/10/03 00:05:03;;;;;;;;;;;;;;;;;;2217135;66;3875;-18
2023/10/03 00:07:37;;;;;;;;;;;;;;;;;;2206097;59;1835;-18
2023/10/03 00:10:08;;;;;;;;;;;;;;;;;;2204499;66;1792;-18
2023/10/03 00:12:38;;;;;;;;;;;;;;;;;;2211173;59;2000;-19
2023/10/03 00:15:09;;;;;;;;;;;;;;;;;;2204652;59;2751;-18
2023/10/03 00:17:39;;;;;;;;;;;;;;;;;;2205664;59;1964;-18
2023/10/03 00:20:11;;;;;;;;;;;;;;;;;;2204583;59;1789;-18
2023/10/03 00:22:42;;;;;;;;;;;;;;;;;;2221893;53;3591;-25
2023/10/03 00:25:19;;;;;;;;;;;;;;;;;;2200657;66;2566;-25
2023/10/03 00:27:51;;;;;;;;;;;;;;;;;;2205244;59;2910;-25
2023/10/03 00:30:23;;;;;;;;;;;;;;;;;;2205323;66;2247;-25
2023/10/03 00:32:54;;;;;;;;;;;;;;;;;;2204970;59;3518;-25
2023/10/03 00:35:29;;;;;;;;;;;;;;;;;;2204401;66;1783;-25
2023/10/03 00:38:00;;;;;;;;;;;;;;;;;;2205382;59;2677;-25
2023/10/03 00:40:31;;;;;;;;;;;;;;;;;;2203920;59;2578;-26
2023/10/03 00:43:02;;;;;;;;;;;;;;;;;;2205610;59;2197;-25
2023/10/03 00:45:32;;;;;;;;;;;;;;;;;;2204779;59;1826;-25
2023/10/03 00:48:08;;;;;;;;;;;;;;;;;;2201436;66;1952;-25
2023/10/03 00:50:39;;;;;;;;;;;;;;;;;;2205456;59;2478;-25
2023/10/03 00:53:09;;;;;;;;;;;;;;;;;;2204479;58;3809;-25
2023/10/03 00:55:43;;;;;;;;;;;;;;;;;;2205542;66;1823;-25
2023/10/03 01:00:50;;;;;;;;;;;;;;;;;;2205371;67;1205;-25
2023/10/03 01:03:30;;;;;;;;;;;;;;;;;;2204550;66;1351;-26
2023/10/03 01:06:07;;;;;;;;;;;;;;;;;;2204753;59;1410;-25
2023/10/03 01:08:39;;;;;;;;;;;;;;;;;;2205038;66;1639;-25
2023/10/03 01:11:15;;;;;;;;;;;;;;;;;;2202019;66;1250;-25
2023/10/03 01:13:47;;;;;;;;;;;;;;;;;;2205389;59;1702;-25
2023/10/03 01:16:37;;;;;;;;;;;;;;;;;;2205200;66;1266;-25
2023/10/03 01:19:29;;;;;;;;;;;;;;;;;;2205452;58;1952;-25
2023/10/03 01:21:59;;;;;;;;;;;;;;;;;;2204717;66;1451;-25
2023/10/03 01:24:30;;;;;;;;;;;;;;;;;;2204839;59;1465;-25
2023/10/03 01:27:00;;;;;;;;;;;;;;;;;;2206255;59;1648;-25
2023/10/03 01:29:31;;;;;;;;;;;;;;;;;;2205039;66;1210;-25
2023/10/03 01:32:01;;;;;;;;;;;;;;;;;;2202286;59;1583;-25
2023/10/03 01:34:31;;;;;;;;;;;;;;;;;;2205053;66;1329;-25
2023/10/03 01:37:01;;;;;;;;;;;;;;;;;;2204678;59;1665;-25
2023/10/03 01:39:32;;;;;;;;;;;;;;;;;;2203524;59;3875;-25
2023/10/03 01:42:03;;;;;;;;;;;;;;;;;;2205156;59;2410;-25
2023/10/03 01:44:36;;;;;;;;;;;;;;;;;;2204136;59;2880;-25
2023/10/03 01:47:07;;;;;;;;;;;;;;;;;;2205846;67;3564;-25
2023/10/03 01:49:40;;;;;;;;;;;;;;;;;;2204461;58;2056;-25
2023/10/03 01:52:10;;;;;;;;;;;;;;;;;;2203337;59;3264;-25
2023/10/03 01:54:42;;;;;;;;;;;;;;;;;;2202055;66;5185;-25
2023/10/03 01:57:12;;;;;;;;;;;;;;;;;;2205478;66;2014;-25
2023/10/03 01:59:43;;;;;;;;;;;;;;;;;;2206156;66;1949;-25
2023/10/03 02:02:15;;;;;;;;;;;;;;;;;;2204435;66;2469;-25
2023/10/03 02:04:45;;;;;;;;;;;;;;;;;;2202990;66;2699;-25
2023/10/03 02:07:16;;;;;;;;;;;;;;;;;;2204901;59;3395;-25
2023/10/03 02:09:46;;;;;;;;;;;;;;;;;;2206041;58;1774;-25
2023/10/03 02:12:17;;;;;;;;;;;;;;;;;;2204937;59;2891;-25
2023/10/03 02:14:49;;;;;;;;;;;;;;;;;;2205504;59;3356;-25
2023/10/03 02:17:19;;;;;;;;;;;;;;;;;;2202489;58;2472;-25
2023/10/03 02:19:50;;;;;;;;;;;;;;;;;;2205897;59;3974;-25
2023/10/03 02:22:20;;;;;;;;;;;;;;;;;;2204711;66;2235;-25
2023/10/03 02:24:54;;;;;;;;;;;;;;;;;;2202192;59;1854;-25
2023/10/03 02:27:26;;;;;;;;;;;;;;;;;;2216356;58;1688;-25
2023/10/03 02:29:58;;;;;;;;;;;;;;;;;;2201577;66;2021;-25
2023/10/03 02:32:30;;;;;;;;;;;;;;;;;;2204689;59;2454;-25
2023/10/03 02:35:00;;;;;;;;;;;;;;;;;;2203011;66;3852;-25
2023/10/03 02:37:31;;;;;;;;;;;;;;;;;;2205224;66;1939;-25
2023/10/03 02:40:04;;;;;;;;;;;;;;;;;;2205230;59;2391;-25
2023/10/03 02:42:40;;;;;;;;;;;;;;;;;;2200733;59;2254;-25
2023/10/03 02:45:14;;;;;;;;;;;;;;;;;;2201776;66;2506;-25
2023/10/03 02:47:45;;;;;;;;;;;;;;;;;;2204196;66;2352;-25
2023/10/03 02:50:16;;;;;;;;;;;;;;;;;;2203916;59;4034;-25
2023/10/03 02:52:46;;;;;;;;;;;;;;;;;;2204566;59;2246;-25
2023/10/03 02:55:19;;;;;;;;;;;;;;;;;;2200967;66;3110;-25
2023/10/03 02:57:50;;;;;;;;;;;;;;;;;;2205564;66;2468;-25
2023/10/03 03:00:21;;;;;;;;;;;;;;;;;;2201944;66;3590;-25
2023/10/03 03:02:51;;;;;;;;;;;;;;;;;;2207095;60;1962;-25
2023/10/03 03:05:22;;;;;;;;;;;;;;;;;;2205694;59;2397;-25
2023/10/03 03:07:58;;;;;;;;;;;;;;;;;;2202993;58;1794;-25
2023/10/03 03:10:28;;;;;;;;;;;;;;;;;;2200000;58;3420;-25
2023/10/03 03:12:59;;;;;;;;;;;;;;;;;;2205511;59;3458;-25
2023/10/03 03:15:31;;;;;;;;;;;;;;;;;;2204884;59;1900;-25
2023/10/03 03:18:02;;;;;;;;;;;;;;;;;;2202283;58;1969;-25
2023/10/03 03:20:42;;;;;;;;;;;;;;;;;;2202803;59;2789;-25
2023/10/03 03:23:14;;;;;;;;;;;;;;;;;;2205641;59;2246;-25
2023/10/03 03:25:45;;;;;;;;;;;;;;;;;;2205021;66;1836;-25
2023/10/03 03:28:15;;;;;;;;;;;;;;;;;;2202877;59;2488;-25
2023/10/03 03:30:46;;;;;;;;;;;;;;;;;;2201641;59;3831;-25
2023/10/03 03:33:20;;;;;;;;;;;;;;;;;;2205670;66;1873;-25
2023/10/03 03:35:50;;;;;;;;;;;;;;;;;;2202825;66;4063;-25
2023/10/03 03:38:20;;;;;;;;;;;;;;;;;;2200799;59;4175;-25
2023/10/03 03:40:55;;;;;;;;;;;;;;;;;;2205650;66;2571;-25
2023/10/03 03:43:26;;;;;;;;;;;;;;;;;;2204293;59;3234;-25
2023/10/03 03:45:56;;;;;;;;;;;;;;;;;;2201763;59;2597;-25
2023/10/03 03:48:27;;;;;;;;;;;;;;;;;;2204595;66;2562;-25
2023/10/03 03:50:57;;;;;;;;;;;;;;;;;;2202213;59;1977;-25
2023/10/03 03:53:29;;;;;;;;;;;;;;;;;;2204556;66;2654;-25
2023/10/03 03:56:00;;;;;;;;;;;;;;;;;;2205722;66;1984;-25
2023/10/03 03:58:31;;;;;;;;;;;;;;;;;;2205301;58;3597;-25
2023/10/03 04:01:01;;;;;;;;;;;;;;;;;;2202669;66;3422;-25
2023/10/03 04:03:34;;;;;;;;;;;;;;;;;;2205031;66;3454;-25
2023/10/03 04:06:05;;;;;;;;;;;;;;;;;;2206343;59;1784;-25
2023/10/03 04:08:35;;;;;;;;;;;;;;;;;;2205295;66;3757;-25
2023/10/03 04:11:07;;;;;;;;;;;;;;;;;;2205282;59;2356;-25
2023/10/03 04:13:49;;;;;;;;;;;;;;;;;;2205580;59;3690;-25
2023/10/03 04:16:26;;;;;;;;;;;;;;;;;;2201776;58;2592;-25
2023/10/03 04:18:57;;;;;;;;;;;;;;;;;;2204300;58;1995;-25
2023/10/03 04:21:28;;;;;;;;;;;;;;;;;;2201731;58;2760;-25
2023/10/03 04:23:59;;;;;;;;;;;;;;;;;;2204728;59;3472;-25
2023/10/03 04:26:32;;;;;;;;;;;;;;;;;;2204462;59;2430;-25
2023/10/03 04:29:02;;;;;;;;;;;;;;;;;;2205659;66;2252;-25
2023/10/03 04:31:32;;;;;;;;;;;;;;;;;;2204294;66;2533;-25
2023/10/03 04:34:03;;;;;;;;;;;;;;;;;;2205055;66;2402;-25
2023/10/03 04:36:36;;;;;;;;;;;;;;;;;;2204293;66;2540;-25
2023/10/03 04:39:06;;;;;;;;;;;;;;;;;;2205300;59;3679;-25
2023/10/03 04:41:44;;;;;;;;;;;;;;;;;;2201667;59;2153;-25
2023/10/03 04:44:17;;;;;;;;;;;;;;;;;;2203645;59;2926;-25
2023/10/03 04:46:48;;;;;;;;;;;;;;;;;;2204770;59;2027;-25
2023/10/03 04:49:18;;;;;;;;;;;;;;;;;;2202493;59;1831;-25
2023/10/03 04:51:49;;;;;;;;;;;;;;;;;;2204903;59;1611;-25
2023/10/03 04:54:19;;;;;;;;;;;;;;;;;;2206255;66;1980;-25
2023/10/03 04:56:49;;;;;;;;;;;;;;;;;;2202070;59;3025;-25
2023/10/03 04:59:20;;;;;;;;;;;;;;;;;;2201542;58;3926;-25
2023/10/03 05:01:54;;;;;;;;;;;;;;;;;;2204378;66;2344;-25
2023/10/03 05:04:24;;;;;;;;;;;;;;;;;;2204248;66;3412;-25
2023/10/03 05:06:55;;;;;;;;;;;;;;;;;;2204815;58;2113;-25
2023/10/03 05:09:30;;;;;;;;;;;;;;;;;;2204759;66;2420;-25
2023/10/03 05:12:02;;;;;;;;;;;;;;;;;;2205749;59;2446;-25
2023/10/03 05:14:35;;;;;;;;;;;;;;;;;;2204359;66;2437;-25
2023/10/03 05:17:06;;;;;;;;;;;;;;;;;;2205679;58;1757;-25
2023/10/03 05:19:36;;;;;;;;;;;;;;;;;;2204140;66;2637;-25
2023/10/03 05:22:08;;;;;;;;;;;;;;;;;;2205211;59;2406;-25
2023/10/03 05:24:38;;;;;;;;;;;;;;;;;;2202929;59;2306;-25
2023/10/03 05:27:09;;;;;;;;;;;;;;;;;;2205504;59;1748;-25
2023/10/03 05:29:40;;;;;;;;;;;;;;;;;;2205033;66;3757;-25
2023/10/03 05:32:10;;;;;;;;;;;;;;;;;;2205805;59;4097;-25
2023/10/03 05:34:41;;;;;;;;;;;;;;;;;;2204378;66;1896;-25
2023/10/03 05:37:12;;;;;;;;;;;;;;;;;;2204942;66;1808;-25
2023/10/03 05:39:42;;;;;;;;;;;;;;;;;;2201378;59;2567;-25
2023/10/03 05:42:13;;;;;;;;;;;;;;;;;;2201919;59;4064;-25
2023/10/03 05:44:45;;;;;;;;;;;;;;;;;;2202917;59;2759;-25
2023/10/03 05:47:15;;;;;;;;;;;;;;;;;;2204170;58;1778;-25
2023/10/03 05:49:45;;;;;;;;;;;;;;;;;;2203724;59;2720;-25
2023/10/03 05:52:16;;;;;;;;;;;;;;;;;;2204258;58;2846;-25
2023/10/03 05:54:47;;;;;;;;;;;;;;;;;;2201287;66;4075;-25
2023/10/03 05:57:17;;;;;;;;;;;;;;;;;;2201449;66;1885;-25
2023/10/03 05:59:47;;;;;;;;;;;;;;;;;;2204036;59;1941;-25
2023/10/03 06:02:18;;;;;;;;;;;;;;;;;;2205139;66;2323;-25
2023/10/03 06:04:49;;;;;;;;;;;;;;;;;;2200969;66;2243;-25
2023/10/03 06:07:19;;;;;;;;;;;;;;;;;;2204153;59;2135;-25
2023/10/03 06:09:49;;;;;;;;;;;;;;;;;;2204587;58;1760;-25
2023/10/03 06:12:20;;;;;;;;;;;;;;;;;;2205228;59;2135;-25
2023/10/03 06:14:50;;;;;;;;;;;;;;;;;;2204820;66;3667;-25
2023/10/03 06:17:21;;;;;;;;;;;;;;;;;;2205650;58;1505;-25
2023/10/03 06:19:52;;;;;;;;;;;;;;;;;;2200688;59;2557;-25
2023/10/03 06:22:22;;;;;;;;;;;;;;;;;;2205074;59;2690;-25
2023/10/03 06:24:57;;;;;;;;;;;;;;;;;;2208308;54;2859;-17
2023/10/03 06:27:27;;;;;;;;;;;;;;;;;;2207918;59;3152;-17
2023/10/03 06:29:57;;;;;;;;;;;;;;;;;;2212273;59;2669;-17
2023/10/03 06:32:28;;;;;;;;;;;;;;;;;;2210845;59;1667;-17
2023/10/03 06:34:58;;;;;;;;;;;;;;;;;;2210705;59;2034;-17
2023/10/03 06:37:28;;;;;;;;;;;;;;;;;;2208541;59;1917;-17
2023/10/03 06:39:59;;;;;;;;;;;;;;;;;;2206549;59;1854;-17
2023/10/03 06:42:29;;;;;;;;;;;;;;;;;;2207980;59;1775;-17
2023/10/03 06:45:00;;;;;;;;;;;;;;;;;;2204349;59;2696;-17
2023/10/03 06:47:33;;;;;;;;;;;;;;;;;;2204123;59;2543;-17
2023/10/03 06:50:05;;;;;;;;;;;;;;;;;;2208812;66;1732;-17
2023/10/03 06:52:35;;;;;;;;;;;;;;;;;;2205322;58;1841;-17
2023/10/03 06:55:06;;;;;;;;;;;;;;;;;;2210917;58;1838;-20
2023/10/03 06:57:40;;;;;;;;;;;;;;;;;;2209370;59;2519;-20
2023/10/03 07:00:14;;;;;;;;;;;;;;;;;;2207749;59;3115;-20
2023/10/03 07:02:45;;;;;;;;;;;;;;;;;;2205864;66;2172;-20
2023/10/03 07:05:15;;;;;;;;;;;;;;;;;;2208878;66;2426;-21
2023/10/03 07:07:47;;;;;;;;;;;;;;;;;;2206407;59;2694;-20
2023/10/03 07:10:17;;;;;;;;;;;;;;;;;;2209381;67;2003;-20
2023/10/03 07:12:48;;;;;;;;;;;;;;;;;;2207936;59;3060;-20
2023/10/03 07:15:18;;;;;;;;;;;;;;;;;;2206129;59;1812;-20
2023/10/03 07:17:49;;;;;;;;;;;;;;;;;;2203614;59;3581;-20
2023/10/03 07:20:19;;;;;;;;;;;;;;;;;;2207884;59;2009;-20
2023/10/03 07:22:49;;;;;;;;;;;;;;;;;;2203896;59;3144;-20
2023/10/03 07:25:19;;;;;;;;;;;;;;;;;;2208497;66;2215;-20
2023/10/03 07:27:49;;;;;;;;;;;;;;;;;;2208240;59;1812;-20
2023/10/03 07:30:20;;;;;;;;;;;;;;;;;;2206977;58;3726;-21
2023/10/03 07:32:51;;;;;;;;;;;;;;;;;;2203710;66;2348;-20
2023/10/03 07:35:22;;;;;;;;;;;;;;;;;;2204312;59;2699;-20
2023/10/03 07:37:52;;;;;;;;;;;;;;;;;;2208391;59;2455;-20
2023/10/03 07:40:27;;;;;;;;;;;;;;;;;;2207843;66;2711;-20
2023/10/03 07:42:58;;;;;;;;;;;;;;;;;;2203828;59;2785;-20
2023/10/03 07:45:29;;;;;;;;;;;;;;;;;;2207808;59;2130;-21
2023/10/03 07:48:05;;;;;;;;;;;;;;;;;;2207414;59;3036;-21
2023/10/03 07:50:37;;;;;;;;;;;;;;;;;;2207127;59;2931;-21
2023/10/03 07:53:11;;;;;;;;;;;;;;;;;;2207871;59;1794;-21
2023/10/03 07:55:41;;;;;;;;;;;;;;;;;;2205486;66;1679;-21
2023/10/03 07:58:14;;;;;;;;;;;;;;;;;;2205427;66;1943;-20
2023/10/03 08:00:45;;;;;;;;;;;;;;;;;;2208847;58;2003;-21
2023/10/03 08:03:15;;;;;;;;;;;;;;;;;;2206142;66;2209;-21
2023/10/03 08:05:46;;;;;;;;;;;;;;;;;;2208044;59;2586;-21
2023/10/03 08:08:16;;;;;;;;;;;;;;;;;;2205630;66;1889;-21
2023/10/03 08:10:48;;;;;;;;;;;;;;;;;;2204123;58;2619;-21
2023/10/03 08:13:19;;;;;;;;;;;;;;;;;;2209920;58;2350;-21
2023/10/03 08:15:49;;;;;;;;;;;;;;;;;;2207963;59;2520;-21
2023/10/03 08:18:19;;;;;;;;;;;;;;;;;;2208132;59;1940;-21
2023/10/03 08:20:53;;;;;;;;;;;;;;;;;;2205260;58;3147;-21
2023/10/03 08:23:23;;;;;;;;;;;;;;;;;;2207506;59;1835;-21
2023/10/03 08:26:01;;;;;;;;;;;;;;;;;;2207813;59;2569;-21
2023/10/03 08:28:32;;;;;;;;;;;;;;;;;;2208290;59;2349;-21
2023/10/03 08:31:06;;;;;;;;;;;;;;;;;;2203011;59;3052;-21
2023/10/03 08:33:36;;;;;;;;;;;;;;;;;;2205736;66;2843;-21
2023/10/03 08:36:14;;;;;;;;;;;;;;;;;;2208236;59;2543;-21
2023/10/03 08:38:44;;;;;;;;;;;;;;;;;;2206751;59;2208;-21
2023/10/03 08:41:34;;;;;;;;;;;;;;;;;;2207588;59;1793;-21
2023/10/03 08:44:06;;;;;;;;;;;;;;;;;;2203737;58;1708;-21
2023/10/03 08:46:37;;;;;;;;;;;;;;;;;;2206390;59;2395;-21
2023/10/03 08:49:09;;;;;;;;;;;;;;;;;;2207895;59;2557;-21
2023/10/03 08:51:39;;;;;;;;;;;;;;;;;;2202682;59;3883;-21
2023/10/03 08:54:09;;;;;;;;;;;;;;;;;;2204247;66;2729;-21
2023/10/03 08:56:41;;;;;;;;;;;;;;;;;;2207663;59;1995;-21
2023/10/03 08:59:15;;;;;;;;;;;;;;;;;;2207923;58;2630;-21
2023/10/03 09:01:46;;;;;;;;;;;;;;;;;;2202297;58;2634;-21
2023/10/03 09:04:17;;;;;;;;;;;;;;;;;;2215722;66;2873;-21
2023/10/03 09:06:47;;;;;;;;;;;;;;;;;;2206777;59;2457;-21
2023/10/03 09:09:17;;;;;;;;;;;;;;;;;;2208463;66;1885;-21
2023/10/03 09:11:51;;;;;;;;;;;;;;;;;;2207098;58;2569;-21
2023/10/03 09:14:24;;;;;;;;;;;;;;;;;;2207762;59;3893;-21
2023/10/03 09:16:59;;;;;;;;;;;;;;;;;;2207265;58;3233;-21
2023/10/03 09:19:43;;;;;;;;;;;;;;;;;;2208627;59;2004;-21
2023/10/03 09:22:32;;;;;;;;;;;;;;;;;;2207730;59;2945;-21
2023/10/03 09:25:02;;;;;;;;;;;;;;;;;;2208455;59;1944;-21
2023/10/03 09:27:33;;;;;;;;;;;;;;;;;;2208411;59;1850;-21
2023/10/03 09:30:08;;;;;;;;;;;;;;;;;;2207364;66;2952;-21
2023/10/03 09:32:39;;;;;;;;;;;;;;;;;;2203884;66;2043;-21
2023/10/03 09:35:10;;;;;;;;;;;;;;;;;;2208335;66;2132;-21
2023/10/03 09:37:43;;;;;;;;;;;;;;;;;;2207391;59;3251;-21
2023/10/03 09:40:17;;;;;;;;;;;;;;;;;;2206718;66;1825;-21
2023/10/03 09:42:48;;;;;;;;;;;;;;;;;;2205310;59;4172;-21
2023/10/03 09:45:24;;;;;;;;;;;;;;;;;;2207890;58;2391;-21
2023/10/03 09:48:05;;;;;;;;;;;;;;;;;;2202870;58;2830;-21
2023/10/03 09:50:36;;;;;;;;;;;;;;;;;;2205054;59;1910;-22
2023/10/03 09:53:08;;;;;;;;;;;;;;;;;;2207202;59;3586;-21
2023/10/03 09:55:46;;;;;;;;;;;;;;;;;;2205815;58;2126;-21
2023/10/03 09:58:24;;;;;;;;;;;;;;;;;;2208044;66;1935;-22
2023/10/03 10:00:55;;;;;;;;;;;;;;;;;;2206418;60;2140;-21
2023/10/03 10:03:30;;;;;;;;;;;;;;;;;;2205074;59;2198;-21
2023/10/03 10:06:12;;;;;;;;;;;;;;;;;;2206792;59;2278;-21
2023/10/03 10:09:01;;;;;;;;;;;;;;;;;;2206241;58;1741;-21
2023/10/03 10:11:31;;;;;;;;;;;;;;;;;;2204587;59;2516;-21
2023/10/03 10:14:02;;;;;;;;;;;;;;;;;;2207361;59;3321;-21
2023/10/03 10:16:32;;;;;;;;;;;;;;;;;;2208711;59;1771;-21
2023/10/03 10:19:05;;;;;;;;;;;;;;;;;;2202258;59;3206;-21
2023/10/03 10:21:37;;;;;;;;;;;;;;;;;;2207499;59;2215;-21
2023/10/03 10:24:15;;;;;;;;;;;;;;;;;;2207230;59;3389;-21
2023/10/03 10:26:48;;;;;;;;;;;;;;;;;;2207375;59;2762;-21
2023/10/03 10:29:20;;;;;;;;;;;;;;;;;;2207808;59;2647;-21
2023/10/03 10:31:57;;;;;;;;;;;;;;;;;;2207344;59;3689;-21
2023/10/03 10:34:29;;;;;;;;;;;;;;;;;;2208812;59;2756;-21
2023/10/03 10:37:04;;;;;;;;;;;;;;;;;;2208069;59;1911;-21
2023/10/03 10:39:54;;;;;;;;;;;;;;;;;;2208801;59;2274;-20
2023/10/03 10:42:29;;;;;;;;;;;;;;;;;;2207656;58;1800;-20
2023/10/03 10:45:02;;;;;;;;;;;;;;;;;;2206405;66;1968;-20
2023/10/03 10:47:33;;;;;;;;;;;;;;;;;;2206026;59;2678;-20
2023/10/03 10:50:04;;;;;;;;;;;;;;;;;;2205368;58;2775;-20
2023/10/03 10:52:53;;;;;;;;;;;;;;;;;;2204548;59;2719;-20
2023/10/03 10:55:25;;;;;;;;;;;;;;;;;;2206887;64;1641;-20
2023/10/03 10:58:07;;;;;;;;;;;;;;;;;;2206665;58;2806;-20
2023/10/03 11:00:38;;;;;;;;;;;;;;;;;;2207673;59;1694;-20
2023/10/03 11:03:08;;;;;;;;;;;;;;;;;;2203319;58;2347;-20
2023/10/03 11:05:43;;;;;;;;;;;;;;;;;;2207209;59;2175;-20
2023/10/03 11:08:13;;;;;;;;;;;;;;;;;;2207940;59;1977;-21
2023/10/03 11:10:54;;;;;;;;;;;;;;;;;;2206288;59;2774;-20
2023/10/03 11:13:25;;;;;;;;;;;;;;;;;;2208173;59;2432;-20
2023/10/03 11:15:55;;;;;;;;;;;;;;;;;;2206936;59;2100;-21
2023/10/03 11:18:29;;;;;;;;;;;;;;;;;;2206567;58;3939;-21
2023/10/03 11:21:00;;;;;;;;;;;;;;;;;;2206655;59;2081;-20
2023/10/03 11:23:31;;;;;;;;;;;;;;;;;;2208046;58;2080;-21
2023/10/03 11:26:05;;;;;;;;;;;;;;;;;;2208078;59;3219;-20
2023/10/03 11:28:48;;;;;;;;;;;;;;;;;;2208011;59;2773;-21
2023/10/03 11:31:18;;;;;;;;;;;;;;;;;;2207566;59;2024;-20
2023/10/03 11:33:48;;;;;;;;;;;;;;;;;;2203080;59;2614;-20
2023/10/03 11:36:19;;;;;;;;;;;;;;;;;;2208165;66;1618;-20
2023/10/03 11:38:50;;;;;;;;;;;;;;;;;;2208264;58;4002;-20
2023/10/03 11:41:30;;;;;;;;;;;;;;;;;;2206058;59;2630;-20
2023/10/03 11:44:01;;;;;;;;;;;;;;;;;;2207851;58;2592;-20
2023/10/03 11:46:40;;;;;;;;;;;;;;;;;;2209183;59;2756;-20
2023/10/03 11:49:10;;;;;;;;;;;;;;;;;;2207867;58;3474;-20
2023/10/03 11:51:44;;;;;;;;;;;;;;;;;;2207859;59;2280;-20
2023/10/03 11:54:15;;;;;;;;;;;;;;;;;;2209470;59;1989;-20
2023/10/03 11:56:46;;;;;;;;;;;;;;;;;;2207282;59;2113;-20
2023/10/03 11:59:16;;;;;;;;;;;;;;;;;;2204595;59;2212;-20
2023/10/03 12:01:48;;;;;;;;;;;;;;;;;;2207567;58;2354;-20
2023/10/03 12:04:18;;;;;;;;;;;;;;;;;;2203493;66;1813;-20
2023/10/03 12:06:49;;;;;;;;;;;;;;;;;;2205376;59;3824;-20
2023/10/03 12:09:20;;;;;;;;;;;;;;;;;;2207087;59;1684;-20
2023/10/03 12:11:50;;;;;;;;;;;;;;;;;;2207198;59;3727;-20
2023/10/03 12:14:20;;;;;;;;;;;;;;;;;;2208873;59;1808;-21
2023/10/03 12:16:51;;;;;;;;;;;;;;;;;;2206772;66;1775;-21
2023/10/03 12:19:21;;;;;;;;;;;;;;;;;;2208165;59;2222;-21
2023/10/03 12:21:52;;;;;;;;;;;;;;;;;;2206834;59;2612;-21
2023/10/03 12:27:04;;;;;;;;;;;;;;;;;;2205204;59;3596;-20
2023/10/03 12:29:35;;;;;;;;;;;;;;;;;;2208138;66;1837;-21
2023/10/03 12:32:05;;;;;;;;;;;;;;;;;;2207866;59;2545;-20
2023/10/03 12:34:35;;;;;;;;;;;;;;;;;;2207357;66;1942;-21
2023/10/03 12:37:11;;;;;;;;;;;;;;;;;;2204762;66;2681;-20
2023/10/03 12:39:41;;;;;;;;;;;;;;;;;;2205320;59;1940;-20
2023/10/03 12:42:12;;;;;;;;;;;;;;;;;;2206206;59;2589;-20
2023/10/03 12:44:43;;;;;;;;;;;;;;;;;;2206259;59;1825;-20
2023/10/03 12:47:14;;;;;;;;;;;;;;;;;;2205483;59;2067;-20
2023/10/03 12:49:44;;;;;;;;;;;;;;;;;;2204213;66;2560;-20
2023/10/03 12:52:14;;;;;;;;;;;;;;;;;;2205127;59;2564;-20
2023/10/03 12:54:45;;;;;;;;;;;;;;;;;;2206406;59;2533;-20
2023/10/03 12:57:16;;;;;;;;;;;;;;;;;;2202252;66;2302;-20
2023/10/03 12:59:49;;;;;;;;;;;;;;;;;;2201707;66;3292;-20
2023/10/03 13:02:21;;;;;;;;;;;;;;;;;;2206149;66;1880;-19
2023/10/03 13:04:51;;;;;;;;;;;;;;;;;;2204599;59;1786;-20
2023/10/03 13:07:22;;;;;;;;;;;;;;;;;;2206655;59;2531;-20
2023/10/03 13:09:52;;;;;;;;;;;;;;;;;;2203297;59;2878;-20
2023/10/03 13:12:23;;;;;;;;;;;;;;;;;;2207139;59;3844;-19
2023/10/03 13:14:53;;;;;;;;;;;;;;;;;;2205969;59;2971;-20
2023/10/03 13:17:24;;;;;;;;;;;;;;;;;;2206694;59;2644;-20
2023/10/03 13:19:55;;;;;;;;;;;;;;;;;;2205510;59;1950;-20
2023/10/03 13:22:27;;;;;;;;;;;;;;;;;;2206871;66;2226;-20
2023/10/03 13:24:57;;;;;;;;;;;;;;;;;;2204885;66;3507;-20
2023/10/03 13:27:30;;;;;;;;;;;;;;;;;;2206444;66;2355;-20
2023/10/03 13:30:00;;;;;;;;;;;;;;;;;;2205369;66;2113;-20
2023/10/03 13:32:31;;;;;;;;;;;;;;;;;;2206741;66;3447;-20
2023/10/03 13:35:02;;;;;;;;;;;;;;;;;;2204802;66;2158;-20
2023/10/03 13:37:33;;;;;;;;;;;;;;;;;;2203164;66;1811;-19
2023/10/03 13:40:05;;;;;;;;;;;;;;;;;;2204672;59;1992;-20
2023/10/03 13:42:37;;;;;;;;;;;;;;;;;;2205164;59;3773;-20
2023/10/03 13:45:07;;;;;;;;;;;;;;;;;;2201606;59;2343;-20
2023/10/03 13:47:37;;;;;;;;;;;;;;;;;;2205719;66;3514;-20
2023/10/03 13:50:12;;;;;;;;;;;;;;;;;;2205523;59;3548;-20
2023/10/03 13:52:42;;;;;;;;;;;;;;;;;;2204307;59;3292;-20
2023/10/03 13:55:14;;;;;;;;;;;;;;;;;;2205233;66;4212;-19
2023/10/03 13:57:45;;;;;;;;;;;;;;;;;;2206079;59;3562;-20
2023/10/03 14:00:16;;;;;;;;;;;;;;;;;;2205834;66;2231;-20
2023/10/03 14:02:50;;;;;;;;;;;;;;;;;;2208199;66;1865;-19
2023/10/03 14:05:20;;;;;;;;;;;;;;;;;;2206028;59;1760;-20
2023/10/03 14:07:51;;;;;;;;;;;;;;;;;;2204609;66;3701;-20
2023/10/03 14:10:22;;;;;;;;;;;;;;;;;;2205811;66;1820;-20
2023/10/03 14:12:53;;;;;;;;;;;;;;;;;;2206141;66;4281;-19
2023/10/03 14:15:23;;;;;;;;;;;;;;;;;;2205383;59;2086;-20
2023/10/03 14:17:55;;;;;;;;;;;;;;;;;;2205166;59;2175;-19
2023/10/03 14:20:26;;;;;;;;;;;;;;;;;;2205628;59;1875;-20
2023/10/03 14:22:57;;;;;;;;;;;;;;;;;;2204985;66;3620;-20
2023/10/03 14:25:30;;;;;;;;;;;;;;;;;;2206172;59;3115;-20
2023/10/03 14:28:00;;;;;;;;;;;;;;;;;;2205144;66;2504;-19
2023/10/03 14:30:31;;;;;;;;;;;;;;;;;;2204954;59;2889;-20
2023/10/03 14:33:01;;;;;;;;;;;;;;;;;;2204578;66;4231;-20
2023/10/03 14:35:31;;;;;;;;;;;;;;;;;;2205710;66;2468;-20
2023/10/03 14:38:01;;;;;;;;;;;;;;;;;;2204225;59;3380;-20
2023/10/03 14:40:32;;;;;;;;;;;;;;;;;;2206353;66;2364;-19
2023/10/03 14:43:03;;;;;;;;;;;;;;;;;;2205855;59;2529;-19
2023/10/03 14:45:33;;;;;;;;;;;;;;;;;;2206537;59;2393;-19
2023/10/03 14:48:04;;;;;;;;;;;;;;;;;;2205081;59;3046;-19
2023/10/03 14:50:35;;;;;;;;;;;;;;;;;;2205976;59;2350;-19
2023/10/03 14:53:07;;;;;;;;;;;;;;;;;;2204210;59;2550;-19
2023/10/03 14:55:37;;;;;;;;;;;;;;;;;;2206104;59;2530;-19
2023/10/03 14:58:08;;;;;;;;;;;;;;;;;;2205823;66;2519;-19
2023/10/03 15:00:41;;;;;;;;;;;;;;;;;;2205328;66;1831;-19
2023/10/03 15:03:11;;;;;;;;;;;;;;;;;;2205007;58;3372;-19
2023/10/03 15:05:45;;;;;;;;;;;;;;;;;;2205883;59;1367;-19
2023/10/03 15:08:15;;;;;;;;;;;;;;;;;;2204786;66;3073;-20
2023/10/03 15:10:45;;;;;;;;;;;;;;;;;;2206059;59;1947;-19
2023/10/03 15:13:16;;;;;;;;;;;;;;;;;;2203647;59;2200;-19
2023/10/03 15:15:46;;;;;;;;;;;;;;;;;;2206008;59;2261;-19
2023/10/03 15:18:17;;;;;;;;;;;;;;;;;;2205860;59;3411;-19
2023/10/03 15:20:47;;;;;;;;;;;;;;;;;;2206467;59;1807;-20
2023/10/03 15:23:17;;;;;;;;;;;;;;;;;;2205354;59;2561;-20
2023/10/03 15:25:47;;;;;;;;;;;;;;;;;;2205782;59;2626;-20
2023/10/03 15:28:21;;;;;;;;;;;;;;;;;;2203492;66;2761;-20
2023/10/03 15:30:53;;;;;;;;;;;;;;;;;;2205529;59;2621;-20
2023/10/03 15:33:24;;;;;;;;;;;;;;;;;;2205756;59;2403;-20
2023/10/03 15:35:57;;;;;;;;;;;;;;;;;;2207292;66;2228;-20
2023/10/03 15:38:27;;;;;;;;;;;;;;;;;;2206838;59;1943;-20
2023/10/03 15:40:58;;;;;;;;;;;;;;;;;;2204592;59;2419;-20
2023/10/03 15:43:28;;;;;;;;;;;;;;;;;;2206124;59;2723;-19
2023/10/03 15:46:00;;;;;;;;;;;;;;;;;;2205616;59;3795;-19
2023/10/03 15:48:30;;;;;;;;;;;;;;;;;;2206408;66;2239;-20
2023/10/03 15:51:00;;;;;;;;;;;;;;;;;;2205227;59;2870;-20
2023/10/03 15:53:34;;;;;;;;;;;;;;;;;;2206433;66;2614;-21
2023/10/03 15:56:16;;;;;;;;;;;;;;;;;;2204999;66;2899;-19
2023/10/03 15:58:47;;;;;;;;;;;;;;;;;;2208210;66;3853;-20
2023/10/03 16:01:17;;;;;;;;;;;;;;;;;;2205145;66;1964;-20
2023/10/03 16:03:47;;;;;;;;;;;;;;;;;;2206516;66;2823;-20
2023/10/03 16:06:18;;;;;;;;;;;;;;;;;;2203894;59;2219;-21
2023/10/03 16:08:51;;;;;;;;;;;;;;;;;;2207214;66;3657;-21
2023/10/03 16:11:24;;;;;;;;;;;;;;;;;;2205354;59;1738;-21
2023/10/03 16:13:54;;;;;;;;;;;;;;;;;;2206772;59;2254;-21
2023/10/03 16:16:24;;;;;;;;;;;;;;;;;;2205737;66;2611;-21
2023/10/03 16:18:56;;;;;;;;;;;;;;;;;;2205267;59;2235;-21
2023/10/03 16:21:26;;;;;;;;;;;;;;;;;;2205817;59;2243;-21
2023/10/03 16:23:56;;;;;;;;;;;;;;;;;;2206297;66;1756;-22
2023/10/03 16:26:28;;;;;;;;;;;;;;;;;;2205078;59;2102;-22
2023/10/03 16:28:58;;;;;;;;;;;;;;;;;;2208057;66;2285;-22
2023/10/03 16:31:29;;;;;;;;;;;;;;;;;;2207248;59;2268;-22
2023/10/03 16:34:00;;;;;;;;;;;;;;;;;;2204831;66;3281;-21
2023/10/03 16:36:30;;;;;;;;;;;;;;;;;;2206187;66;2147;-20
2023/10/03 16:39:00;;;;;;;;;;;;;;;;;;2205221;66;3727;-21
2023/10/03 16:41:31;;;;;;;;;;;;;;;;;;2206325;58;2589;-21
2023/10/03 16:44:01;;;;;;;;;;;;;;;;;;2205426;66;3356;-21
2023/10/03 16:46:32;;;;;;;;;;;;;;;;;;2207208;59;2781;-21
2023/10/03 16:49:02;;;;;;;;;;;;;;;;;;2205700;66;3588;-20
2023/10/03 16:51:33;;;;;;;;;;;;;;;;;;2206724;59;1995;-22
2023/10/03 16:54:04;;;;;;;;;;;;;;;;;;2204801;66;2848;-20
2023/10/03 16:56:35;;;;;;;;;;;;;;;;;;2206106;66;3383;-21
2023/10/03 16:59:06;;;;;;;;;;;;;;;;;;2202699;66;3528;-20
2023/10/03 17:01:36;;;;;;;;;;;;;;;;;;2207126;59;2192;-21
2023/10/03 17:04:07;;;;;;;;;;;;;;;;;;2205519;66;2111;-20
2023/10/03 17:06:37;;;;;;;;;;;;;;;;;;2207551;59;2831;-20
2023/10/03 17:09:09;;;;;;;;;;;;;;;;;;2205372;66;2466;-20
2023/10/03 17:11:39;;;;;;;;;;;;;;;;;;2206733;59;3364;-20
2023/10/03 17:14:09;;;;;;;;;;;;;;;;;;2206668;59;2651;-20
2023/10/03 17:16:39;;;;;;;;;;;;;;;;;;2206923;66;2292;-20
2023/10/03 17:19:10;;;;;;;;;;;;;;;;;;2205977;59;2420;-20
2023/10/03 17:21:40;;;;;;;;;;;;;;;;;;2206614;59;1798;-20
2023/10/03 17:24:11;;;;;;;;;;;;;;;;;;2205324;59;2907;-20
2023/10/03 17:26:42;;;;;;;;;;;;;;;;;;2207546;59;2462;-20
2023/10/03 17:29:13;;;;;;;;;;;;;;;;;;2205130;66;3661;-20
2023/10/03 17:31:43;;;;;;;;;;;;;;;;;;2206288;59;4191;-20
2023/10/03 17:34:14;;;;;;;;;;;;;;;;;;2205964;66;2805;-20
2023/10/03 17:36:45;;;;;;;;;;;;;;;;;;2206911;66;2455;-19
2023/10/03 17:39:15;;;;;;;;;;;;;;;;;;2206038;59;2116;-20